Time;durP1;ratioP1;P1;durP2;ratioP2;P2;SDS_P1;SDS_P2;PMS_P1;PMS_P2;Temp;Humidity;BMP_temperature;BMP_pressure;BME280_temperature;BME280_humidity;BME280_pressure;Samples;Min_cycle;Max_cycle;Signal;HPM_P1;HPM_P2
2022/09/03 00:00:48;;;;;;;;;8.25;7.25;;;;;22.26;57.71;100656.16;5069805;27;45336;-79
2022/09/03 00:03:21;;;;;;;;;7.50;7.00;;;;;22.26;57.50;100640.25;5053138;28;45646;-78
2022/09/03 00:06:05;;;;;;;;;9.25;8.25;;;;;22.26;58.01;100649.06;5054282;28;45961;-79
2022/09/03 00:08:58;;;;;;;;;8.50;6.75;;;;;22.25;57.89;100644.69;5054082;28;45679;-79
2022/09/03 00:12:05;;;;;;;;;8.25;8.25;;;;;22.24;57.55;100646.47;5053767;28;45596;-79
2022/09/03 00:14:38;;;;;;;;;7.50;7.50;;;;;22.24;57.92;100646.47;5035714;28;45632;-79
2022/09/03 00:17:04;;;;;;;;;9.50;9.50;;;;;22.23;57.37;100649.25;5036042;28;45801;-79
2022/09/03 00:19:43;;;;;;;;;13.00;10.00;;;;;22.16;57.25;100643.63;5068880;28;45521;-78
2022/09/03 00:22:16;;;;;;;;;13.75;11.75;;;;;22.11;57.43;100645.78;5069127;27;45485;-79
2022/09/03 00:24:43;;;;;;;;;10.00;9.50;;;;;22.09;57.98;100646.88;5069267;28;45374;-79
2022/09/03 00:27:19;;;;;;;;;12.00;10.00;;;;;22.04;57.60;100653.34;5052237;28;45563;-79
2022/09/03 00:29:49;;;;;;;;;10.50;9.00;;;;;22.02;58.18;100650.00;5033997;28;45514;-78
2022/09/03 00:32:25;;;;;;;;;11.00;9.50;;;;;21.95;57.85;100640.00;5035012;28;45502;-79
2022/09/03 00:34:56;;;;;;;;;8.25;7.00;;;;;21.99;58.63;100642.31;5068835;28;45462;-79
2022/09/03 00:37:21;;;;;;;;;11.00;9.00;;;;;22.05;58.59;100648.91;5068771;28;45920;-79
2022/09/03 00:39:47;;;;;;;;;9.75;9.75;;;;;22.08;58.77;100647.81;5052627;28;67336;-79
2022/09/03 00:42:24;;;;;;;;;9.50;8.00;;;;;22.08;58.03;100648.66;5053160;28;45550;-79
2022/09/03 00:44:55;;;;;;;;;6.75;6.75;;;;;22.10;58.65;100648.53;5053018;28;46695;-79
2022/09/03 00:47:43;;;;;;;;;9.25;7.75;;;;;22.10;58.65;100645.91;5051851;28;45847;-79
2022/09/03 00:50:14;;;;;;;;;9.00;8.25;;;;;22.11;58.48;100644.94;5050498;28;45464;-79
2022/09/03 00:53:00;;;;;;;;;7.75;7.50;;;;;22.06;58.42;100640.00;5069012;28;45501;-79
2022/09/03 00:55:46;;;;;;;;;9.75;7.75;;;;;22.02;58.69;100646.50;5052932;28;45498;-79
2022/09/03 00:58:14;;;;;;;;;7.50;6.75;;;;;22.01;59.32;100648.31;5053117;28;45662;-79
2022/09/03 01:00:42;;;;;;;;;7.50;6.50;;;;;21.95;59.05;100648.81;5052788;28;45504;-79
2022/09/03 01:03:10;;;;;;;;;6.00;6.00;;;;;21.89;59.32;100646.63;5035456;28;45594;-79
2022/09/03 01:05:38;;;;;;;;;7.00;7.00;;;;;21.82;59.06;100651.56;5053316;28;46499;-78
2022/09/03 01:08:25;;;;;;;;;9.25;7.25;;;;;21.74;59.63;100643.34;5053503;28;45800;-79
2022/09/03 01:10:56;;;;;;;;;6.75;6.75;;;;;21.74;59.61;100656.59;5052950;28;45616;-79
2022/09/03 01:13:36;;;;;;;;;7.50;7.50;;;;;21.74;59.42;100648.66;5052920;28;45361;-78
2022/09/03 01:16:25;;;;;;;;;10.00;8.50;;;;;21.73;59.64;100649.63;5031637;28;45488;-78
2022/09/03 01:19:07;;;;;;;;;8.75;7.00;;;;;21.74;59.50;100653.94;5044495;28;45848;-78
2022/09/03 01:21:46;;;;;;;;;7.50;7.50;;;;;21.75;59.89;100642.41;5051633;28;45375;-78
2022/09/03 01:24:42;;;;;;;;;8.50;7.75;;;;;21.76;59.68;100654.66;5068263;28;45548;-79
2022/09/03 01:27:34;;;;;;;;;8.00;7.00;;;;;21.80;60.26;100649.97;5052632;28;45577;-78
2022/09/03 01:30:09;;;;;;;;;9.00;7.75;;;;;21.78;59.69;100652.75;5068174;28;45346;-78
2022/09/03 01:32:41;;;;;;;;;7.00;7.00;;;;;21.79;59.98;100648.31;5035393;28;45391;-78
2022/09/03 01:35:25;;;;;;;;;7.00;7.00;;;;;21.79;59.83;100650.97;5052849;28;45509;-78
2022/09/03 01:38:00;;;;;;;;;6.00;6.00;;;;;21.80;59.91;100652.63;5068170;28;47418;-78
2022/09/03 01:40:32;;;;;;;;;9.50;6.50;;;;;21.74;60.06;100648.66;5068033;28;45739;-78
2022/09/03 01:43:01;;;;;;;;;7.25;6.50;;;;;21.72;60.43;100639.97;5068444;28;45340;-77
2022/09/03 01:45:45;;;;;;;;;7.50;7.00;;;;;21.71;60.14;100656.00;5051988;28;45389;-78
2022/09/03 01:48:19;;;;;;;;;7.00;7.00;;;;;21.69;60.24;100645.50;5067605;28;47530;-78
2022/09/03 01:50:49;;;;;;;;;6.00;5.75;;;;;21.70;60.27;100646.38;5067991;28;45556;-79
2022/09/03 01:53:30;;;;;;;;;8.00;6.75;;;;;21.72;60.10;100645.28;5068142;28;45462;-78
2022/09/03 01:56:14;;;;;;;;;6.75;6.50;;;;;21.72;60.26;100641.81;5068194;28;45362;-78
2022/09/03 01:58:53;;;;;;;;;7.25;5.75;;;;;21.70;60.41;100639.25;5068706;28;46639;-79
2022/09/03 02:01:25;;;;;;;;;8.00;7.00;;;;;21.64;60.46;100635.28;5070872;28;45887;-78
2022/09/03 02:03:51;;;;;;;;;6.50;6.50;;;;;21.69;60.24;100626.97;5071576;27;45589;-78
2022/09/03 02:06:19;;;;;;;;;7.00;5.75;;;;;21.71;60.29;100629.50;5055125;28;59726;-78
2022/09/03 02:08:45;;;;;;;;;7.50;7.00;;;;;21.70;60.51;100628.66;5071052;28;45508;-77
2022/09/03 02:11:10;;;;;;;;;10.25;6.50;;;;;21.72;60.19;100629.38;5055613;28;45452;-78
2022/09/03 02:13:41;;;;;;;;;6.25;6.00;;;;;21.77;60.61;100637.00;5055759;28;45496;-78
2022/09/03 02:16:12;;;;;;;;;7.00;5.00;;;;;21.78;60.86;100631.56;5071514;27;45359;-78
2022/09/03 02:18:45;;;;;;;;;7.00;6.00;;;;;21.77;60.76;100637.00;5071302;28;47023;-78
2022/09/03 02:21:13;;;;;;;;;8.50;6.75;;;;;21.73;60.38;100638.16;5055317;28;45229;-78
2022/09/03 02:23:39;;;;;;;;;8.75;6.50;;;;;21.70;60.39;100638.44;5055885;28;45201;-78
2022/09/03 02:26:05;;;;;;;;;7.75;6.75;;;;;21.63;60.65;100644.19;5071184;28;45586;-79
2022/09/03 02:28:32;;;;;;;;;7.25;7.25;;;;;21.56;61.15;100640.34;5070964;28;54730;-78
2022/09/03 02:30:57;;;;;;;;;6.25;6.25;;;;;21.53;60.89;100642.38;5037696;28;45507;-78
2022/09/03 02:33:23;;;;;;;;;7.00;6.50;;;;;21.45;61.24;100649.09;5055293;28;45665;-78
2022/09/03 02:35:48;;;;;;;;;9.50;7.25;;;;;21.36;61.63;100644.47;5054355;28;71575;-77
2022/09/03 02:38:24;;;;;;;;;7.25;6.75;;;;;21.32;61.38;100647.44;5070744;27;45713;-78
2022/09/03 02:40:50;;;;;;;;;8.00;6.25;;;;;21.27;61.80;100646.00;5037221;28;45778;-78
2022/09/03 02:43:28;;;;;;;;;6.00;5.00;;;;;21.27;62.21;100658.41;5055118;28;45319;-78
2022/09/03 02:45:57;;;;;;;;;6.50;6.25;;;;;21.25;62.23;100657.69;5071239;28;45805;-78
2022/09/03 02:48:23;;;;;;;;;6.50;6.00;;;;;21.18;62.46;100651.97;5036892;28;46516;-78
2022/09/03 02:50:49;;;;;;;;;7.25;5.50;;;;;21.18;62.30;100653.78;5054168;28;68528;-78
2022/09/03 02:53:14;;;;;;;;;7.00;6.25;;;;;21.20;62.62;100651.88;5054044;28;69320;-78
2022/09/03 02:55:40;;;;;;;;;5.00;5.00;;;;;21.15;62.93;100654.00;5054168;28;62517;-78
2022/09/03 02:58:05;;;;;;;;;7.50;6.00;;;;;21.08;62.71;100657.13;5054339;28;71034;-78
2022/09/03 03:00:32;;;;;;;;;9.75;7.25;;;;;21.08;62.97;100651.00;5054988;28;45460;-78
2022/09/03 03:02:57;;;;;;;;;9.00;7.00;;;;;21.05;62.83;100651.22;5055248;28;45260;-77
2022/09/03 03:05:27;;;;;;;;;6.50;6.50;;;;;21.00;62.61;100643.59;5055087;28;45430;-78
2022/09/03 03:07:52;;;;;;;;;6.75;6.75;;;;;20.98;62.59;100645.53;5053667;28;46627;-77
2022/09/03 03:10:17;;;;;;;;;8.00;8.00;;;;;21.01;63.72;100655.91;5035159;28;45791;-78
2022/09/03 03:12:44;;;;;;;;;5.50;5.50;;;;;20.98;63.19;100650.81;5054919;28;45499;-78
2022/09/03 03:15:09;;;;;;;;;5.00;4.00;;;;;20.96;63.16;100649.25;5054829;28;45482;-78
2022/09/03 03:17:34;;;;;;;;;7.25;6.75;;;;;20.95;63.42;100639.63;5054905;28;46059;-77
2022/09/03 03:20:00;;;;;;;;;6.50;6.50;;;;;20.97;63.60;100645.63;5053993;28;71055;-78
2022/09/03 03:22:25;;;;;;;;;7.50;6.75;;;;;20.97;63.16;100649.16;5053680;28;67768;-78
2022/09/03 03:24:51;;;;;;;;;9.00;6.00;;;;;21.00;63.29;100646.25;5054423;28;45582;-78
2022/09/03 03:27:17;;;;;;;;;9.00;6.75;;;;;21.05;63.46;100651.22;5054430;28;46352;-78
2022/09/03 03:29:43;;;;;;;;;7.50;6.50;;;;;21.07;63.27;100644.84;5054730;28;45379;-78
2022/09/03 03:32:08;;;;;;;;;7.50;7.25;;;;;21.08;63.12;100643.06;5054529;28;45490;-78
2022/09/03 03:34:33;;;;;;;;;8.00;6.25;;;;;21.10;62.90;100646.44;5054037;28;63042;-78
2022/09/03 03:36:59;;;;;;;;;7.00;6.00;;;;;21.07;63.27;100642.19;5053802;28;67804;-77
2022/09/03 03:39:24;;;;;;;;;9.25;8.00;;;;;21.07;63.04;100639.56;5052813;28;73308;-78
2022/09/03 03:41:51;;;;;;;;;7.00;6.75;;;;;21.07;63.15;100641.38;5052894;28;49819;-78
2022/09/03 03:44:18;;;;;;;;;8.75;7.25;;;;;21.04;63.51;100642.44;5054259;28;45546;-78
2022/09/03 03:46:44;;;;;;;;;7.25;7.25;;;;;21.03;63.40;100643.38;5035482;28;46344;-77
2022/09/03 03:49:10;;;;;;;;;7.00;6.00;;;;;21.01;63.72;100650.59;5053982;28;45527;-78
2022/09/03 03:51:37;;;;;;;;;9.75;9.50;;;;;21.00;63.47;100646.25;5054506;28;45286;-78
2022/09/03 03:54:02;;;;;;;;;8.00;7.00;;;;;21.00;63.61;100634.84;5050724;28;45391;-77
2022/09/03 03:56:27;;;;;;;;;9.00;6.25;;;;;21.05;63.60;100643.28;5053874;28;46658;-78
2022/09/03 03:58:53;;;;;;;;;8.00;7.50;;;;;21.04;63.59;100633.63;5054151;28;45281;-78
2022/09/03 04:01:21;;;;;;;;;6.00;6.00;;;;;21.06;63.71;100640.53;5053809;28;45522;-78
2022/09/03 04:03:47;;;;;;;;;7.00;7.00;;;;;21.05;63.47;100635.34;5054298;28;45578;-78
2022/09/03 04:06:15;;;;;;;;;9.25;8.00;;;;;21.04;63.58;100637.16;5053879;28;46927;-77
2022/09/03 04:08:42;;;;;;;;;10.75;8.25;;;;;21.02;63.46;100627.63;5053903;28;45423;-78
2022/09/03 04:11:10;;;;;;;;;7.00;7.00;;;;;20.99;63.59;100631.34;5054228;28;45386;-79
2022/09/03 04:13:38;;;;;;;;;7.25;6.50;;;;;20.98;64.25;100636.75;5054362;28;45425;-78
2022/09/03 04:16:06;;;;;;;;;8.00;6.75;;;;;20.97;63.90;100638.56;5054193;28;45717;-78
2022/09/03 04:18:32;;;;;;;;;9.75;8.75;;;;;20.99;64.03;100635.81;5053351;28;45467;-78
2022/09/03 04:21:02;;;;;;;;;9.00;8.25;;;;;20.98;64.41;100642.88;5053989;28;45328;-78
2022/09/03 04:23:28;;;;;;;;;8.00;7.25;;;;;20.94;64.56;100644.06;5053270;28;45723;-78
2022/09/03 04:25:53;;;;;;;;;7.25;7.00;;;;;20.87;64.29;100638.38;5053322;28;52095;-78
2022/09/03 04:28:18;;;;;;;;;7.75;7.00;;;;;20.85;64.34;100644.75;5052491;28;73200;-78
2022/09/03 04:30:44;;;;;;;;;10.00;8.75;;;;;20.81;65.14;100645.94;5052889;28;63802;-79
2022/09/03 04:33:09;;;;;;;;;7.00;7.00;;;;;20.75;64.91;100639.31;5052713;28;70262;-78
2022/09/03 04:35:34;;;;;;;;;7.75;7.75;;;;;20.74;65.38;100639.41;5052741;28;75555;-79
2022/09/03 04:38:00;;;;;;;;;12.75;7.25;;;;;20.71;65.00;100642.25;5035405;28;45444;-78
2022/09/03 04:40:25;;;;;;;;;12.25;9.00;;;;;20.70;65.16;100644.06;5053453;28;45297;-77
2022/09/03 04:42:55;;;;;;;;;10.50;9.25;;;;;20.68;65.11;100648.63;5052497;28;70594;-77
2022/09/03 04:45:21;;;;;;;;;10.00;8.00;;;;;20.59;65.15;100639.53;5053106;28;46314;-77
2022/09/03 04:47:58;;;;;;;;;10.25;9.00;;;;;20.58;66.07;100644.91;5052380;28;71951;-78
2022/09/03 04:50:25;;;;;;;;;9.75;9.00;;;;;20.46;65.68;100638.72;5053131;28;45721;-78
2022/09/03 04:52:50;;;;;;;;;6.25;6.25;;;;;20.52;65.83;100651.50;5053278;28;45435;-77
2022/09/03 04:55:16;;;;;;;;;10.00;8.75;;;;;20.57;65.83;100649.38;5051751;28;75665;-78
2022/09/03 04:57:41;;;;;;;;;8.75;8.25;;;;;20.57;65.96;100646.72;5052701;28;59928;-78
2022/09/03 05:00:10;;;;;;;;;10.00;8.00;;;;;20.57;65.65;100646.72;5053396;28;45479;-78
2022/09/03 05:02:35;;;;;;;;;9.50;8.50;;;;;20.58;65.88;100650.22;5068753;28;45330;-79
2022/09/03 05:05:01;;;;;;;;;9.00;8.00;;;;;20.57;65.30;100649.38;5053378;28;48099;-78
2022/09/03 05:07:28;;;;;;;;;8.25;8.25;;;;;20.54;65.63;100646.09;5051732;28;68659;-78
2022/09/03 05:09:53;;;;;;;;;7.75;7.00;;;;;20.62;65.77;100651.72;5053059;28;45288;-77
2022/09/03 05:12:19;;;;;;;;;10.25;9.75;;;;;20.62;66.08;100655.22;5052970;28;45503;-78
2022/09/03 05:14:44;;;;;;;;;7.25;6.75;;;;;20.65;65.66;100655.00;5052834;28;46318;-78
2022/09/03 05:17:10;;;;;;;;;10.00;9.50;;;;;20.69;65.46;100651.19;5052580;28;45420;-77
2022/09/03 05:19:35;;;;;;;;;10.00;9.75;;;;;20.71;65.62;100655.50;5053305;28;45287;-77
2022/09/03 05:22:01;;;;;;;;;11.00;10.00;;;;;20.67;66.12;100663.66;5052907;28;45452;-77
2022/09/03 05:24:26;;;;;;;;;10.00;7.00;;;;;20.60;65.33;100656.25;5051909;28;64899;-77
2022/09/03 05:26:51;;;;;;;;;7.50;7.00;;;;;20.66;65.46;100661.13;5052874;28;45274;-77
2022/09/03 05:29:18;;;;;;;;;11.50;7.50;;;;;20.68;65.46;100661.84;5051671;28;68727;-77
2022/09/03 05:31:44;;;;;;;;;9.25;7.25;;;;;20.68;65.50;100661.84;5052961;28;45537;-77
2022/09/03 05:34:09;;;;;;;;;10.00;8.50;;;;;20.66;65.26;100658.47;5053392;28;75554;-78
2022/09/03 05:36:36;;;;;;;;;8.50;8.50;;;;;20.71;65.09;100661.66;5056244;28;45491;-78
2022/09/03 05:39:02;;;;;;;;;11.00;9.00;;;;;20.71;65.45;100668.72;5056829;28;45499;-77
2022/09/03 05:41:28;;;;;;;;;11.75;9.75;;;;;20.72;65.46;100670.41;5056370;28;45554;-79
2022/09/03 05:43:55;;;;;;;;;11.50;10.00;;;;;20.72;65.63;100670.41;5038379;28;47077;-78
2022/09/03 05:46:26;;;;;;;;;11.25;9.00;;;;;20.73;65.36;100670.31;5055351;28;45927;-77
2022/09/03 05:48:51;;;;;;;;;12.00;10.25;;;;;20.75;65.28;100665.75;5056141;28;45336;-77
2022/09/03 05:51:17;;;;;;;;;9.25;8.00;;;;;20.75;65.66;100667.56;5054717;28;61010;-77
2022/09/03 05:53:47;;;;;;;;;13.25;10.75;;;;;20.73;65.30;100666.78;5056163;28;45503;-77
2022/09/03 05:56:18;;;;;;;;;9.00;7.00;;;;;20.78;65.23;100673.47;5055965;28;45790;-78
2022/09/03 05:58:46;;;;;;;;;11.50;8.00;;;;;20.86;65.29;100670.25;5056203;28;45519;-78
2022/09/03 06:01:14;;;;;;;;;12.00;8.00;;;;;20.84;65.21;100685.41;5071651;28;45520;-79
2022/09/03 06:03:40;;;;;;;;;12.25;9.00;;;;;20.84;65.24;100686.25;5055489;28;46278;-79
2022/09/03 06:06:06;;;;;;;;;12.25;11.00;;;;;20.81;65.18;100686.44;5056048;28;45566;-79
2022/09/03 06:08:32;;;;;;;;;15.25;10.50;;;;;20.81;65.10;100694.38;5056149;28;45673;-77
2022/09/03 06:10:58;;;;;;;;;11.25;11.25;;;;;20.77;65.47;100692.09;5055960;28;45285;-78
2022/09/03 06:13:23;;;;;;;;;9.75;7.25;;;;;20.80;65.31;100694.50;5055546;28;46527;-77
2022/09/03 06:15:49;;;;;;;;;9.25;8.00;;;;;20.81;65.56;100693.56;5055696;28;45541;-78
2022/09/03 06:18:14;;;;;;;;;9.75;9.50;;;;;20.81;65.20;100696.19;5070248;28;64752;-78
2022/09/03 06:20:39;;;;;;;;;12.50;8.50;;;;;20.81;65.50;100699.69;5054923;28;63888;-78
2022/09/03 06:23:05;;;;;;;;;14.00;11.00;;;;;20.81;65.68;100698.84;5054999;28;75150;-78
2022/09/03 06:25:30;;;;;;;;;10.00;8.75;;;;;20.83;65.36;100708.34;5054641;28;72972;-78
2022/09/03 06:27:56;;;;;;;;;7.25;7.25;;;;;20.86;65.52;100707.31;5055821;28;45424;-78
2022/09/03 06:30:22;;;;;;;;;14.25;12.00;;;;;20.89;65.20;100712.34;5055490;28;45495;-78
2022/09/03 06:32:49;;;;;;;;;9.50;8.25;;;;;20.89;65.52;100720.28;5055321;28;45434;-78
2022/09/03 06:35:15;;;;;;;;;11.00;11.00;;;;;20.90;65.17;100722.00;5055140;28;46271;-77
2022/09/03 06:37:41;;;;;;;;;15.00;12.00;;;;;20.89;65.15;100712.34;5037641;28;45428;-78
2022/09/03 06:40:11;;;;;;;;;13.75;9.75;;;;;20.88;65.29;100716.81;5055725;28;45928;-78
2022/09/03 06:42:40;;;;;;;;;12.00;9.75;;;;;20.88;65.12;100714.16;5052515;28;47587;-78
2022/09/03 06:45:06;;;;;;;;;9.50;8.25;;;;;20.86;65.29;100709.94;5055612;28;45767;-78
2022/09/03 06:47:32;;;;;;;;;12.00;11.00;;;;;20.87;64.70;100719.56;5055334;28;45366;-78
2022/09/03 06:49:59;;;;;;;;;13.25;9.00;;;;;20.86;64.88;100720.53;5055147;28;45420;-78
2022/09/03 06:52:24;;;;;;;;;10.00;8.75;;;;;20.86;65.29;100720.53;5070458;27;46200;-78
2022/09/03 06:54:49;;;;;;;;;11.50;11.50;;;;;20.87;65.13;100722.19;5055249;28;45356;-78
2022/09/03 06:57:15;;;;;;;;;11.50;11.50;;;;;20.91;65.17;100726.31;5054834;28;45380;-78
2022/09/03 06:59:42;;;;;;;;;12.00;10.00;;;;;20.95;65.21;100721.63;5055325;28;45356;-78
2022/09/03 07:02:07;;;;;;;;;9.25;8.50;;;;;20.98;64.64;100724.06;5070136;28;46243;-78
2022/09/03 07:04:33;;;;;;;;;11.25;9.25;;;;;21.00;64.94;100717.69;5055416;28;45333;-78
2022/09/03 07:06:59;;;;;;;;;11.00;11.00;;;;;21.00;64.64;100725.63;5055139;28;45472;-79
2022/09/03 07:09:25;;;;;;;;;9.00;9.00;;;;;21.02;64.82;100723.75;5054833;28;45324;-79
2022/09/03 07:11:51;;;;;;;;;11.00;10.00;;;;;21.01;64.65;100715.91;5054980;28;47330;-79
2022/09/03 07:14:18;;;;;;;;;11.00;9.00;;;;;20.98;64.45;100718.78;5054533;28;45377;-79
2022/09/03 07:16:44;;;;;;;;;9.75;9.25;;;;;21.00;64.58;100722.16;5070447;28;45490;-78
2022/09/03 07:19:12;;;;;;;;;12.50;10.00;;;;;21.02;64.42;100723.75;5054690;28;45510;-79
2022/09/03 07:21:40;;;;;;;;;9.00;9.00;;;;;21.02;64.85;100720.25;5054983;28;46247;-79
2022/09/03 07:24:05;;;;;;;;;11.00;10.25;;;;;21.03;64.60;100721.94;5055205;28;45980;-79
2022/09/03 07:26:34;;;;;;;;;12.50;12.00;;;;;21.05;64.21;100723.50;5054940;28;45645;-78
2022/09/03 07:29:00;;;;;;;;;9.75;9.00;;;;;21.08;64.64;100731.22;5054874;28;45426;-79
2022/09/03 07:31:30;;;;;;;;;9.25;8.25;;;;;21.14;64.18;100737.03;5052041;28;45478;-78
2022/09/03 07:33:57;;;;;;;;;11.25;9.00;;;;;21.08;63.76;100730.41;5067777;27;45403;-78
2022/09/03 07:36:25;;;;;;;;;7.75;7.50;;;;;21.07;63.88;100737.47;5054054;28;45436;-79
2022/09/03 07:38:57;;;;;;;;;9.75;9.00;;;;;21.08;64.32;100733.88;5054570;28;45485;-78
2022/09/03 07:41:23;;;;;;;;;11.75;11.00;;;;;21.04;64.48;100744.78;5052071;28;47201;-77
2022/09/03 07:43:49;;;;;;;;;7.25;7.25;;;;;21.02;64.18;100744.91;5050705;28;45831;-77
2022/09/03 07:46:21;;;;;;;;;9.25;9.00;;;;;21.05;64.25;100749.97;5052068;28;70051;-77
2022/09/03 07:48:48;;;;;;;;;13.75;8.50;;;;;21.11;64.21;100748.66;5052726;28;45460;-77
2022/09/03 07:51:13;;;;;;;;;9.25;7.25;;;;;21.15;63.47;100744.00;5037509;28;47168;-77
2022/09/03 07:53:39;;;;;;;;;10.00;7.00;;;;;21.19;63.77;100743.69;5039296;28;45473;-80
2022/09/03 07:56:07;;;;;;;;;8.00;8.00;;;;;21.21;63.13;100747.06;5054054;28;45530;-77
2022/09/03 07:58:33;;;;;;;;;8.25;6.00;;;;;21.23;63.30;100747.78;5054562;28;45515;-77
2022/09/03 08:01:03;;;;;;;;;6.50;5.75;;;;;21.29;63.29;100743.00;5053617;28;45395;-77
2022/09/03 08:03:29;;;;;;;;;7.50;7.00;;;;;21.34;62.75;100746.13;5069976;28;45734;-77
2022/09/03 08:06:00;;;;;;;;;10.50;8.50;;;;;21.46;62.92;100747.91;5056318;28;68662;-78
2022/09/03 08:08:25;;;;;;;;;7.75;7.75;;;;;21.59;62.72;100747.84;5054239;28;46133;-78
2022/09/03 08:10:50;;;;;;;;;8.00;8.00;;;;;21.74;62.88;100749.31;5052957;28;74068;-78
2022/09/03 08:13:16;;;;;;;;;8.00;7.75;;;;;21.94;62.03;100755.75;5052870;28;72019;-78
2022/09/03 08:15:41;;;;;;;;;10.50;7.50;;;;;22.04;61.81;100754.06;5053204;28;45543;-79
2022/09/03 08:18:07;;;;;;;;;7.75;7.75;;;;;22.17;61.12;100761.94;5054256;28;45539;-79
2022/09/03 08:20:32;;;;;;;;;5.25;5.25;;;;;22.20;61.07;100759.03;5054103;28;45591;-78
2022/09/03 08:23:01;;;;;;;;;10.25;9.25;;;;;22.24;61.39;100757.00;5052947;28;72013;-78
2022/09/03 08:25:27;;;;;;;;;9.25;8.75;;;;;22.30;61.72;100768.97;5053858;28;45340;-78
2022/09/03 08:27:52;;;;;;;;;11.00;9.00;;;;;22.36;61.07;100761.38;5053931;28;45269;-78
2022/09/03 08:30:18;;;;;;;;;9.75;8.00;;;;;22.34;60.56;100767.75;5053149;28;46512;-77
2022/09/03 08:32:43;;;;;;;;;10.25;6.75;;;;;22.33;60.53;100766.91;5051696;28;45716;-78
2022/09/03 08:35:08;;;;;;;;;8.50;7.00;;;;;22.34;60.99;100771.28;5052302;28;45615;-78
2022/09/03 08:37:34;;;;;;;;;9.50;6.00;;;;;22.32;60.50;100769.69;5051646;28;61365;-79
2022/09/03 08:39:59;;;;;;;;;7.00;6.00;;;;;22.35;60.96;100770.28;5057003;28;46498;-79
2022/09/03 08:42:48;;;;;;;;;5.00;4.00;;;;;22.41;60.66;100779.56;5053019;28;45464;-79
2022/09/03 08:45:19;;;;;;;;;7.25;7.25;;;;;22.43;60.75;100777.66;5050643;28;45560;-79
2022/09/03 08:47:48;;;;;;;;;6.75;6.00;;;;;22.47;60.27;100781.75;5053110;28;45503;-77
2022/09/03 08:50:25;;;;;;;;;5.00;5.00;;;;;22.52;59.79;100784.88;5053013;28;46326;-78
2022/09/03 08:52:56;;;;;;;;;4.50;4.00;;;;;22.55;59.17;100781.16;5010940;28;45856;-78
2022/09/03 08:55:27;;;;;;;;;5.25;4.75;;;;;22.59;59.45;100788.75;5011731;28;45764;-78
2022/09/03 08:58:13;;;;;;;;;5.00;4.00;;;;;22.77;59.22;100789.09;5011955;28;45443;-78
2022/09/03 09:00:52;;;;;;;;;6.00;4.25;;;;;;;;5011892;28;46194;-78
2022/09/03 09:03:36;;;;;;;;;8.00;5.00;;;;;23.17;58.28;100795.69;5012423;28;45957;-77
2022/09/03 09:06:19;;;;;;;;;5.50;4.00;;;;;23.46;58.24;100793.31;5013691;28;46282;-78
2022/09/03 09:08:54;;;;;;;;;4.50;3.50;;;;;23.62;57.15;100794.69;5010870;28;45563;-78
2022/09/03 09:11:40;;;;;;;;;4.75;3.25;;;;;23.83;57.07;100790.28;5010639;28;47359;-78
2022/09/03 09:14:08;;;;;;;;;5.25;4.50;;;;;24.04;55.59;100782.31;5012837;28;45309;-78
2022/09/03 09:16:57;;;;;;;;;3.25;3.00;;;;;24.23;55.72;100791.38;5013326;28;45559;-78
2022/09/03 09:19:25;;;;;;;;;5.50;4.00;;;;;24.39;55.34;100790.91;4950878;28;45552;-78
2022/09/03 09:21:59;;;;;;;;;4.25;3.25;;;;;24.43;54.67;100785.16;4949593;28;46344;-78
2022/09/03 09:24:26;;;;;;;;;5.25;3.25;;;;;24.53;54.22;100790.56;4947941;28;45513;-78
2022/09/03 09:26:57;;;;;;;;;5.00;3.00;;;;;24.64;54.04;100786.97;4951364;28;45512;-79
2022/09/03 09:29:26;;;;;;;;;4.00;3.00;;;;;24.67;52.95;100794.69;4951588;28;45340;-79
2022/09/03 09:31:52;;;;;;;;;3.00;3.00;;;;;24.80;52.24;100794.44;4935309;28;46568;-78
2022/09/03 09:34:17;;;;;;;;;3.25;3.00;;;;;24.81;52.34;100799.63;4951536;28;45861;-78
2022/09/03 09:36:47;;;;;;;;;3.75;3.00;;;;;24.75;52.66;100800.16;4950899;28;46545;-78
2022/09/03 09:39:16;;;;;;;;;3.25;3.00;;;;;24.64;53.31;100787.78;4951450;28;45499;-79
2022/09/03 09:41:43;;;;;;;;;3.00;3.00;;;;;24.64;53.30;100797.59;4951335;28;45474;-79
2022/09/03 09:44:18;;;;;;;;;5.00;4.00;;;;;24.57;53.22;100797.28;4951280;28;45569;-79
2022/09/03 09:46:43;;;;;;;;;3.00;3.00;;;;;24.63;52.45;100802.09;4933559;28;45461;-79
2022/09/03 09:49:30;;;;;;;;;4.25;2.75;;;;;24.74;52.32;100798.50;4950659;28;59298;-79
2022/09/03 09:52:11;;;;;;;;;2.00;2.00;;;;;24.93;51.64;100784.38;4964859;28;45487;-78
2022/09/03 09:54:37;;;;;;;;;3.50;3.50;;;;;25.21;52.10;100798.72;4971016;28;45812;-79
2022/09/03 09:57:05;;;;;;;;;2.00;2.00;;;;;25.48;50.38;100794.56;5016113;28;45416;-78
2022/09/03 09:59:32;;;;;;;;;2.25;2.25;;;;;25.69;49.70;100791.78;5032497;28;45537;-78
2022/09/03 10:02:11;;;;;;;;;2.50;2.50;;;;;25.88;49.62;100799.75;5064665;28;46405;-78
2022/09/03 10:04:36;;;;;;;;;6.00;4.75;;;;;26.00;49.50;100796.94;5032511;28;45815;-79
2022/09/03 10:07:24;;;;;;;;;3.50;3.50;;;;;26.08;49.41;100799.75;5065350;28;45383;-78
2022/09/03 10:10:17;;;;;;;;;5.25;4.25;;;;;26.10;49.53;100804.94;5032256;28;45493;-78
2022/09/03 10:13:08;;;;;;;;;4.50;3.25;;;;;25.97;48.25;100808.75;5028896;28;45495;-77
2022/09/03 10:15:43;;;;;;;;;5.75;4.00;;;;;25.91;49.38;100813.78;5064187;28;45340;-78
2022/09/03 10:18:27;;;;;;;;;7.00;3.00;;;;;25.83;49.79;100806.50;5030925;28;45487;-78
2022/09/03 10:21:15;;;;;;;;;2.00;2.00;;;;;25.79;48.84;100810.44;5065968;28;45451;-77
2022/09/03 10:23:52;;;;;;;;;3.75;3.75;;;;;25.69;48.92;100810.44;5068252;28;46904;-78
2022/09/03 10:26:28;;;;;;;;;5.25;4.00;;;;;25.74;50.22;100812.66;5035234;28;46893;-78
2022/09/03 10:28:57;;;;;;;;;3.00;3.00;;;;;25.80;49.03;100825.47;5035745;28;45291;-77
2022/09/03 10:31:47;;;;;;;;;6.25;3.00;;;;;25.79;49.53;100826.44;5067713;28;45321;-77
2022/09/03 10:34:20;;;;;;;;;3.00;3.00;;;;;25.64;49.44;100824.19;5032785;28;48290;-78
2022/09/03 10:37:02;;;;;;;;;3.00;3.00;;;;;25.54;49.65;100827.81;5035339;28;45851;-78
2022/09/03 10:39:41;;;;;;;;;4.00;4.00;;;;;25.65;50.24;100825.03;5067281;28;45363;-77
2022/09/03 10:42:30;;;;;;;;;3.00;3.00;;;;;25.82;50.02;100820.81;5067938;27;45354;-77
2022/09/03 10:45:11;;;;;;;;;3.00;3.00;;;;;25.93;49.40;100818.03;5067689;28;46285;-77
2022/09/03 10:48:03;;;;;;;;;4.00;4.00;;;;;25.99;48.94;100827.28;5067782;27;45344;-78
2022/09/03 10:50:51;;;;;;;;;3.25;3.25;;;;;26.16;49.30;100821.22;5068853;27;45407;-78
2022/09/03 10:53:33;;;;;;;;;4.00;4.00;;;;;26.38;48.60;100830.69;5037114;28;45907;-78
2022/09/03 10:56:17;;;;;;;;;5.00;3.75;;;;;26.33;48.11;100838.28;5070901;27;46615;-78
2022/09/03 10:59:13;;;;;;;;;3.50;3.50;;;;;26.31;48.34;100837.59;5070801;28;45414;-78
2022/09/03 11:02:14;;;;;;;;;3.75;3.00;;;;;26.32;48.98;100841.09;5052563;28;45447;-78
2022/09/03 11:05:06;;;;;;;;;5.75;4.00;;;;;26.43;47.34;100849.78;5055286;28;45502;-78
2022/09/03 11:07:43;;;;;;;;;7.00;3.75;;;;;26.41;46.44;100854.44;5070771;28;47073;-78
2022/09/03 11:10:25;;;;;;;;;3.75;3.75;;;;;26.23;47.35;100841.00;5070335;27;45424;-78
2022/09/03 11:13:01;;;;;;;;;3.00;3.00;;;;;26.14;46.97;100844.53;5070248;28;45594;-78
2022/09/03 11:15:36;;;;;;;;;4.50;3.75;;;;;26.07;46.86;100841.56;5054763;28;45873;-78
2022/09/03 11:18:18;;;;;;;;;3.00;3.00;;;;;26.03;46.84;100839.34;5070881;28;46147;-78
2022/09/03 11:20:43;;;;;;;;;3.25;2.50;;;;;26.07;47.49;100827.41;5036830;28;45933;-78
2022/09/03 11:23:12;;;;;;;;;6.00;4.25;;;;;26.06;47.77;100829.22;5070121;28;45325;-78
2022/09/03 11:25:47;;;;;;;;;4.00;4.00;;;;;26.23;47.81;100835.66;5070453;28;45408;-78
2022/09/03 11:28:23;;;;;;;;;3.00;3.00;;;;;26.59;46.55;100832.31;5054336;28;45542;-78
2022/09/03 11:30:51;;;;;;;;;4.25;4.00;;;;;26.91;44.72;100831.91;5053989;28;45329;-78
2022/09/03 11:33:20;;;;;;;;;5.00;4.00;;;;;27.28;45.38;100828.34;5069840;28;45292;-77
2022/09/03 11:35:55;;;;;;;;;5.75;4.50;;;;;28.46;45.26;100831.66;5054624;28;45584;-78
2022/09/03 11:38:23;;;;;;;;;6.00;6.00;;;;;30.84;39.91;100834.56;5053838;28;47675;-78
2022/09/03 11:41:13;;;;;;;;;3.00;3.00;;;;;33.52;35.04;100837.72;5054498;28;45792;-79